Alango, Minnesota
Current Conditions -  °F | °C
As of 6:14 AM on Friday 28 Nov 2014 (Local Time) from KCQM Reporting Station
Light Snow Light Snow  
Wind Chill:   Ceiling: 4400
Heat Index:   Visibility: 5mi
Dew Point:   Wind: 0mph
Humidity: 79%   Direction: NA
Pressure: 30.04"   Gusts: NA
Location:  47.7453°N, 92.7634°W
Report Text: KCQM 281214Z AUTO 00000KT 5SM -SN BKN044 OVC080 M14/M17 A3004 RMK AO2
Loading
Personal Weather Stations






























Interactive Weather Map New forecast layout! Learn more

10-Day Weather Forecast

Advertisements
Track Severe Weather on mobile